createdAt,value
2023-03-21T00:01:03.785Z,47.87
2023-03-21T00:06:11.320Z,34.56
2023-03-21T00:11:14.773Z,35.90
2023-03-21T00:16:19.486Z,33.24
2023-03-21T00:21:46.500Z,31.00
2023-03-21T00:27:06.090Z,31.51
2023-03-21T00:32:20.072Z,30.51
2023-03-21T00:37:28.369Z,28.82
2023-03-21T00:42:34.327Z,29.55
2023-03-21T00:47:39.901Z,30.79
2023-03-21T00:52:46.420Z,31.67
2023-03-21T00:58:01.226Z,37.48
2023-03-21T01:03:21.284Z,36.91
2023-03-21T01:08:38.148Z,36.12
2023-03-21T01:13:56.091Z,36.79
2023-03-21T01:19:09.329Z,35.74
2023-03-21T01:24:16.911Z,34.88
2023-03-21T01:29:20.498Z,34.18
2023-03-21T01:34:23.998Z,36.30
2023-03-21T01:39:32.935Z,34.71
2023-03-21T01:44:53.046Z,34.76
2023-03-21T01:49:59.113Z,34.04
2023-03-21T01:55:15.482Z,35.16
2023-03-21T02:00:39.593Z,35.11
2023-03-21T02:06:00.578Z,33.97
2023-03-21T02:11:11.427Z,32.42
2023-03-21T02:16:24.997Z,32.96
2023-03-21T02:21:47.684Z,33.84
2023-03-21T02:27:03.994Z,34.07
2023-03-21T02:32:35.010Z,34.32
2023-03-21T02:37:52.044Z,33.32
2023-03-21T02:43:11.646Z,34.52
2023-03-21T02:48:31.151Z,34.13
2023-03-21T02:53:43.844Z,33.09
2023-03-21T02:58:49.745Z,32.12
2023-03-21T03:03:53.405Z,32.65
2023-03-21T03:09:07.478Z,33.55
2023-03-21T03:14:40.046Z,31.57
2023-03-21T03:19:53.653Z,31.08
2023-03-21T03:25:09.601Z,30.95
2023-03-21T03:30:39.062Z,29.69
2023-03-21T03:35:55.849Z,27.69
2023-03-21T03:41:12.842Z,28.49
2023-03-21T03:46:28.204Z,29.17
2023-03-21T03:51:36.789Z,33.25
2023-03-21T03:57:08.848Z,30.12
2023-03-21T04:02:12.602Z,29.46
2023-03-21T04:07:16.464Z,29.78
2023-03-21T04:12:23.565Z,28.29
2023-03-21T04:17:45.459Z,22.27
2023-03-21T04:22:49.754Z,22.34
2023-03-21T04:27:55.760Z,24.47
2023-03-21T04:33:19.996Z,21.90
2023-03-21T04:38:30.872Z,22.02
2023-03-21T04:43:39.361Z,22.33
2023-03-21T04:48:42.986Z,21.94
2023-03-21T04:53:49.276Z,21.80
2023-03-21T04:58:54.076Z,21.93
2023-03-21T05:03:58.227Z,31.01
2023-03-21T05:09:05.553Z,27.21
2023-03-21T05:14:12.877Z,26.52
2023-03-21T05:19:17.497Z,27.74
2023-03-21T05:24:24.514Z,24.96
2023-03-21T05:29:31.480Z,24.39
2023-03-21T05:34:38.620Z,26.63
2023-03-21T05:39:42.632Z,25.84
2023-03-21T05:44:54.023Z,24.16
2023-03-21T05:50:02.860Z,24.84
2023-03-21T05:55:08.123Z,23.25
2023-03-21T06:00:13.964Z,23.13
2023-03-21T06:05:20.273Z,26.20
2023-03-21T06:10:25.973Z,31.42
2023-03-21T06:15:33.190Z,21.64
2023-03-21T06:20:51.472Z,21.33
2023-03-21T06:25:57.492Z,23.83
2023-03-21T06:31:04.541Z,22.32
2023-03-21T06:36:12.579Z,23.71
2023-03-21T06:41:17.013Z,23.82
2023-03-21T06:46:29.983Z,22.76
2023-03-21T06:51:33.694Z,24.39
2023-03-21T06:56:48.715Z,25.32
2023-03-21T07:02:00.736Z,22.73
2023-03-21T07:07:07.973Z,23.24
2023-03-21T07:12:13.847Z,21.35
2023-03-21T07:17:44.837Z,22.35
2023-03-21T07:22:48.382Z,21.98
2023-03-21T07:27:54.049Z,21.77
2023-03-21T07:32:58.824Z,21.58
2023-03-21T07:38:02.234Z,21.43
2023-03-21T07:43:05.682Z,21.71
2023-03-21T07:48:13.876Z,19.99
2023-03-21T07:53:17.468Z,17.85
2023-03-21T07:58:20.887Z,21.59
2023-03-21T08:03:26.513Z,18.44
2023-03-21T08:08:30.040Z,14.80
2023-03-21T08:13:33.617Z,14.29
2023-03-21T08:18:40.671Z,15.57
2023-03-21T08:23:46.562Z,14.15
2023-03-21T08:28:50.087Z,16.49
2023-03-21T08:33:55.780Z,16.62
2023-03-21T08:39:05.491Z,17.34
2023-03-21T08:44:09.416Z,15.85
2023-03-21T08:49:14.351Z,15.93
2023-03-21T08:54:19.920Z,13.48
2023-03-21T08:59:23.903Z,13.30
2023-03-21T09:04:30.674Z,12.85
2023-03-21T09:09:37.498Z,13.21
2023-03-21T09:14:41.373Z,13.13
2023-03-21T09:19:46.615Z,123.87
2023-03-21T09:24:50.511Z,11.60
2023-03-21T09:29:55.213Z,11.37
2023-03-21T09:35:07.098Z,16.36
2023-03-21T09:40:18.173Z,15.62
2023-03-21T09:45:27.259Z,17.41
2023-03-21T09:50:34.780Z,18.28
2023-03-21T09:55:41.697Z,16.62
2023-03-21T10:00:49.571Z,19.62
2023-03-21T10:05:58.739Z,16.60
2023-03-21T10:11:07.767Z,15.88
2023-03-21T10:16:15.384Z,16.50
2023-03-21T10:21:47.456Z,16.30
2023-03-21T10:26:48.191Z,17.04
2023-03-21T10:31:56.052Z,17.43
2023-03-21T10:37:03.561Z,16.72
2023-03-21T11:37:42.024Z,103.68
2023-03-21T11:42:48.132Z,44.54
2023-03-21T11:47:57.585Z,16.84
2023-03-21T11:53:15.253Z,15.99
2023-03-21T11:58:28.283Z,13.24
2023-03-21T12:03:54.914Z,15.11
2023-03-21T12:09:07.420Z,25.23
2023-03-21T12:14:20.990Z,15.33
2023-03-21T12:19:35.500Z,16.50
2023-03-21T12:24:50.013Z,15.54
2023-03-21T12:30:01.460Z,16.00
2023-03-21T12:35:17.587Z,15.74
2023-03-21T12:40:32.585Z,15.41
2023-03-21T12:45:46.634Z,20.53
2023-03-21T12:50:57.228Z,14.32
2023-03-21T12:56:08.271Z,15.64
2023-03-21T13:01:16.993Z,16.04
2023-03-21T13:06:26.393Z,12.19
2023-03-21T13:11:35.560Z,10.11
2023-03-21T13:16:43.617Z,8.75
2023-03-21T13:21:52.460Z,10.23
2023-03-21T13:27:06.765Z,10.64
2023-03-21T13:32:16.379Z,9.91
2023-03-21T13:37:22.542Z,10.60
2023-03-21T13:42:34.325Z,11.96
2023-03-21T13:47:42.584Z,10.65
2023-03-21T13:53:10.474Z,9.79
2023-03-21T13:58:33.785Z,9.84
2023-03-21T14:03:37.366Z,8.53
2023-03-21T14:08:43.344Z,8.85
2023-03-21T14:13:51.882Z,13.30
2023-03-21T14:18:57.669Z,15.06
2023-03-21T14:24:04.760Z,9.03
2023-03-21T14:29:25.490Z,9.65
2023-03-21T14:34:30.731Z,10.81
2023-03-21T14:39:36.435Z,11.00
2023-03-21T14:44:54.313Z,10.87
2023-03-21T14:50:00.254Z,11.35
2023-03-21T14:55:14.853Z,11.55
2023-03-21T15:00:25.122Z,11.82
2023-03-21T15:05:32.574Z,10.92
2023-03-21T15:10:36.109Z,10.05
2023-03-21T15:15:43.616Z,10.82
2023-03-21T15:20:51.845Z,9.78
2023-03-21T15:25:56.073Z,10.02
2023-03-21T15:31:04.505Z,9.67
2023-03-21T15:36:10.852Z,10.46
2023-03-21T15:41:15.334Z,10.02
2023-03-21T15:46:33.391Z,11.27
2023-03-21T15:51:39.182Z,10.46
2023-03-21T15:56:46.199Z,13.22
2023-03-21T16:01:52.551Z,11.08
2023-03-21T16:07:00.467Z,17.31
2023-03-21T16:12:11.351Z,11.94
2023-03-21T16:17:24.171Z,10.75
2023-03-21T16:22:28.382Z,12.72
2023-03-21T16:27:31.864Z,11.89
2023-03-21T16:32:38.944Z,11.16
2023-03-21T16:37:45.146Z,10.81
2023-03-21T16:42:50.894Z,50.08
2023-03-21T16:47:56.218Z,16.93
2023-03-21T16:53:02.635Z,14.38
2023-03-21T16:58:08.338Z,13.78
2023-03-21T17:03:19.014Z,14.86
2023-03-21T17:08:22.673Z,13.25
2023-03-21T17:13:28.358Z,13.15
2023-03-21T17:18:33.213Z,13.68
2023-03-21T17:23:36.669Z,20.88
2023-03-21T17:28:40.157Z,22.13
2023-03-21T17:33:50.663Z,19.41
2023-03-21T17:38:56.491Z,20.23
2023-03-21T17:44:02.958Z,18.78
2023-03-21T17:49:09.514Z,27.87
2023-03-21T17:54:12.960Z,28.50
2023-03-21T17:59:16.459Z,21.74
2023-03-21T18:04:23.362Z,18.43
2023-03-21T18:09:27.649Z,17.33
2023-03-21T18:14:34.808Z,17.72
2023-03-21T18:19:40.081Z,18.18
2023-03-21T18:24:43.459Z,18.25
2023-03-21T18:30:25.726Z,19.80
2023-03-21T18:35:17.170Z,18.94
2023-03-21T18:40:24.247Z,23.91
2023-03-21T18:45:30.264Z,20.86
2023-03-21T18:50:37.949Z,27.93
2023-03-21T18:55:46.620Z,28.61
2023-03-21T19:00:51.611Z,25.29
2023-03-21T19:06:00.667Z,22.57
2023-03-21T19:11:06.442Z,23.00
2023-03-21T19:16:11.735Z,23.22
2023-03-21T19:21:17.066Z,22.44
2023-03-21T19:26:23.105Z,22.19
2023-03-21T19:31:26.962Z,23.35
2023-03-21T19:36:34.561Z,21.91
2023-03-21T19:41:41.093Z,22.88
2023-03-21T19:46:44.862Z,23.85
2023-03-21T19:51:49.942Z,25.72
2023-03-21T19:56:53.476Z,27.15
2023-03-21T20:02:17.915Z,27.35
2023-03-21T20:07:24.452Z,25.99
2023-03-21T20:12:28.092Z,27.89
2023-03-21T20:17:32.167Z,28.42
2023-03-21T20:28:25.867Z,27.93
2023-03-21T20:33:29.185Z,33.38
2023-03-21T20:38:35.626Z,44.05
2023-03-21T20:49:07.438Z,44.85
2023-03-21T20:54:14.731Z,45.17
2023-03-21T20:59:26.556Z,47.61
2023-03-21T21:04:52.940Z,45.24
2023-03-21T21:09:56.429Z,44.36
2023-03-21T21:15:00.472Z,45.63
2023-03-21T21:20:15.234Z,44.95
2023-03-21T21:25:20.539Z,45.54
2023-03-21T21:30:32.603Z,51.40
2023-03-21T21:35:38.651Z,44.94
2023-03-21T21:40:43.981Z,45.06
2023-03-21T21:45:48.227Z,43.41
2023-03-21T21:50:54.185Z,45.28
2023-03-21T21:56:02.589Z,47.49
2023-03-21T22:01:08.455Z,47.97
2023-03-21T22:06:12.179Z,52.75
2023-03-21T22:11:18.629Z,53.77
2023-03-21T22:16:22.296Z,53.30
2023-03-21T22:21:25.832Z,59.15
2023-03-21T22:26:33.596Z,61.55
2023-03-21T22:31:41.893Z,64.11
2023-03-21T22:36:50.561Z,62.68
2023-03-21T22:42:00.984Z,64.54
2023-03-21T22:47:05.834Z,66.61
2023-03-21T22:52:09.393Z,71.02
2023-03-21T22:57:17.247Z,72.30
2023-03-21T23:02:23.606Z,77.14
2023-03-21T23:07:27.088Z,78.78
2023-03-21T23:12:34.418Z,79.90
2023-03-21T23:17:40.062Z,80.89
2023-03-21T23:22:43.529Z,81.55
2023-03-21T23:27:48.392Z,83.18
2023-03-21T23:32:56.954Z,83.26
2023-03-21T23:38:03.182Z,81.01
2023-03-21T23:43:08.387Z,80.05
2023-03-21T23:48:14.017Z,76.64
2023-03-21T23:53:19.568Z,77.66
2023-03-21T23:58:24.422Z,77.30
